createdAt,value
2023-03-26T00:02:41.918Z,97105.19
2023-03-26T00:05:32.145Z,97110.91
2023-03-26T00:08:22.397Z,97116.31
2023-03-26T00:11:15.517Z,97116.50
2023-03-26T00:14:05.640Z,97118.88
2023-03-26T00:16:54.715Z,97136.22
2023-03-26T00:19:43.997Z,97135.44
2023-03-26T00:22:32.970Z,97140.66
2023-03-26T00:25:23.980Z,97144.34
2023-03-26T00:28:13.443Z,97151.03
2023-03-26T00:31:06.662Z,97144.53
2023-03-26T00:33:56.812Z,97143.41
2023-03-26T00:36:47.126Z,97146.09
2023-03-26T00:39:37.407Z,97138.78
2023-03-26T00:42:27.902Z,97133.06
2023-03-26T00:45:17.207Z,97135.13
2023-03-26T00:48:06.733Z,97136.38
2023-03-26T00:50:55.523Z,97140.84
2023-03-26T00:53:47.403Z,97146.13
2023-03-26T00:56:37.015Z,97141.50
2023-03-26T00:59:30.450Z,97136.72
2023-03-26T01:02:22.057Z,97138.50
2023-03-26T01:05:46.644Z,97140.69
2023-03-26T01:08:39.633Z,97132.53
2023-03-26T01:11:32.855Z,97132.38
2023-03-26T01:14:28.954Z,97138.09
2023-03-26T01:17:19.668Z,97133.13
2023-03-26T01:20:17.168Z,97137.91
2023-03-26T01:23:08.442Z,97132.47
2023-03-26T01:26:21.249Z,97134.09
2023-03-26T01:29:21.761Z,97129.09
2023-03-26T01:32:25.738Z,97131.66
2023-03-26T01:35:32.155Z,97127.84
2023-03-26T01:38:35.494Z,97129.59
2023-03-26T01:41:36.010Z,97131.00
2023-03-26T01:44:35.464Z,97133.44
2023-03-26T01:47:25.012Z,97133.59
2023-03-26T01:50:14.484Z,97132.34
2023-03-26T01:53:05.625Z,97127.09
2023-03-26T01:56:12.803Z,97134.59
2023-03-26T01:59:25.150Z,97128.88
2023-03-26T02:02:18.200Z,97131.94
2023-03-26T02:05:18.487Z,97126.34
2023-03-26T02:08:20.492Z,97115.34
2023-03-26T02:11:14.317Z,97123.63
2023-03-26T02:14:07.634Z,97111.19
2023-03-26T02:16:57.150Z,97113.88
2023-03-26T02:19:48.042Z,97111.13
2023-03-26T02:22:41.082Z,97107.75
2023-03-26T02:25:32.059Z,97107.66
2023-03-26T02:28:21.457Z,97111.78
2023-03-26T02:31:13.911Z,97109.38
2023-03-26T02:34:03.013Z,97104.28
2023-03-26T02:36:54.666Z,97104.44
2023-03-26T02:39:43.870Z,97102.69
2023-03-26T02:42:42.482Z,97102.34
2023-03-26T02:45:31.559Z,97101.25
2023-03-26T02:48:27.909Z,97098.88
2023-03-26T02:51:34.961Z,97086.91
2023-03-26T02:54:26.876Z,97083.03
2023-03-26T02:57:28.812Z,97074.81
2023-03-26T03:00:23.840Z,97072.19
2023-03-26T03:03:34.579Z,97078.75
2023-03-26T03:06:26.470Z,97069.00
2023-03-26T03:09:19.898Z,97063.00
2023-03-26T03:12:27.296Z,97068.66
2023-03-26T03:15:16.085Z,97059.06
2023-03-26T03:18:05.206Z,97054.31
2023-03-26T03:20:56.548Z,97045.91
2023-03-26T03:23:45.863Z,97048.63
2023-03-26T03:26:36.552Z,97052.31
2023-03-26T03:29:45.678Z,97057.13
2023-03-26T03:33:13.094Z,97063.00
2023-03-26T03:36:10.245Z,97053.00
2023-03-26T03:39:09.572Z,97059.81
2023-03-26T03:41:59.192Z,97055.53
2023-03-26T03:44:48.067Z,97056.47
2023-03-26T03:47:57.661Z,97052.00
2023-03-26T03:50:54.860Z,97056.16
2023-03-26T03:53:49.396Z,97055.47
2023-03-26T03:56:49.134Z,97038.94
2023-03-26T03:59:58.181Z,97039.38
2023-03-26T04:02:49.181Z,97033.69
2023-03-26T04:05:38.717Z,97039.09
2023-03-26T04:08:27.579Z,97025.56
2023-03-26T04:11:19.374Z,97031.31
2023-03-26T04:14:34.116Z,97028.47
2023-03-26T04:17:42.750Z,97025.63
2023-03-26T04:20:33.962Z,97011.78
2023-03-26T04:23:24.475Z,97022.91
2023-03-26T04:26:20.862Z,97024.66
2023-03-26T04:29:32.849Z,97021.78
2023-03-26T04:32:26.597Z,97029.69
2023-03-26T04:35:19.489Z,97032.22
2023-03-26T04:38:16.805Z,97031.38
2023-03-26T04:41:08.687Z,97024.22
2023-03-26T04:44:06.990Z,97024.94
2023-03-26T04:46:55.781Z,97029.59
2023-03-26T04:49:52.397Z,97037.16
2023-03-26T04:52:44.568Z,97027.94
2023-03-26T04:56:10.410Z,97029.38
2023-03-26T04:59:29.949Z,97022.25
2023-03-26T05:02:20.223Z,97019.84
2023-03-26T05:05:15.149Z,97025.50
2023-03-26T05:08:04.215Z,97013.75
2023-03-26T05:10:53.315Z,97019.22
2023-03-26T05:13:49.998Z,97011.78
2023-03-26T05:16:41.541Z,97016.25
2023-03-26T05:19:31.253Z,97019.78
2023-03-26T05:22:20.400Z,97009.81
2023-03-26T05:25:31.501Z,97010.31
2023-03-26T05:28:24.646Z,97010.81
2023-03-26T05:31:35.998Z,97014.44
2023-03-26T05:34:27.180Z,97008.56
2023-03-26T05:37:17.278Z,97005.56
2023-03-26T05:40:17.166Z,96999.22
2023-03-26T05:43:26.782Z,96987.75
2023-03-26T05:46:24.150Z,96996.47
2023-03-26T05:49:13.275Z,96990.75
2023-03-26T05:52:03.921Z,96989.28
2023-03-26T05:55:09.817Z,96988.16
2023-03-26T05:58:36.433Z,96982.97
2023-03-26T06:01:54.454Z,96972.41
2023-03-26T06:04:46.273Z,96978.44
2023-03-26T06:07:56.957Z,96972.03
2023-03-26T06:10:52.669Z,96958.44
2023-03-26T06:13:42.363Z,96944.38
2023-03-26T06:16:31.522Z,96941.81
2023-03-26T06:19:40.524Z,96941.38
2023-03-26T06:22:39.768Z,96926.88
2023-03-26T06:25:57.369Z,96941.56
2023-03-26T06:29:04.671Z,96944.66
2023-03-26T06:32:19.816Z,96930.41
2023-03-26T06:35:29.390Z,96925.16
2023-03-26T06:38:18.804Z,96912.91
2023-03-26T06:41:09.515Z,96912.41
2023-03-26T06:44:01.543Z,96911.53
2023-03-26T06:47:28.890Z,96911.31
2023-03-26T06:50:40.576Z,96905.31
2023-03-26T06:53:47.935Z,96904.50
2023-03-26T06:56:58.969Z,96904.50
2023-03-26T07:00:08.630Z,96913.19
2023-03-26T07:03:17.346Z,96905.66
2023-03-26T07:06:26.611Z,96905.53
2023-03-26T07:09:34.019Z,96902.94
2023-03-26T07:12:43.422Z,96897.84
2023-03-26T07:15:50.932Z,96884.06
2023-03-26T07:18:58.384Z,96884.81
2023-03-26T07:21:53.865Z,96884.47
2023-03-26T07:25:08.037Z,96878.59
2023-03-26T07:28:20.478Z,96873.47
2023-03-26T07:31:34.909Z,96866.53
2023-03-26T07:34:54.336Z,96851.78
2023-03-26T07:38:38.587Z,96861.28
2023-03-26T07:42:00.458Z,96861.13
2023-03-26T07:45:27.250Z,96851.59
2023-03-26T07:48:47.763Z,96849.13
2023-03-26T07:51:43.946Z,96845.00
2023-03-26T07:54:51.998Z,96844.16
2023-03-26T07:58:20.816Z,96838.19
2023-03-26T08:02:15.028Z,96841.25
2023-03-26T08:05:26.229Z,96838.31
2023-03-26T08:08:49.473Z,96829.94
2023-03-26T08:12:07.475Z,96819.44
2023-03-26T08:15:08.889Z,96811.16
2023-03-26T08:18:14.654Z,96811.59
2023-03-26T08:21:11.144Z,96808.81
2023-03-26T08:24:09.523Z,96801.09
2023-03-26T08:27:13.484Z,96796.97
2023-03-26T08:30:12.039Z,96795.41
2023-03-26T08:33:16.745Z,96792.41
2023-03-26T08:36:06.798Z,96775.84
2023-03-26T08:38:57.577Z,96775.81
2023-03-26T08:42:34.446Z,96774.16
2023-03-26T08:46:01.067Z,96776.88
2023-03-26T08:49:38.662Z,96772.66
2023-03-26T08:53:05.723Z,96768.13
2023-03-26T08:56:09.824Z,96767.09
2023-03-26T09:00:05.968Z,96763.03
2023-03-26T09:03:41.362Z,96753.69
2023-03-26T09:07:27.151Z,96751.47
2023-03-26T09:11:04.890Z,96731.47
2023-03-26T09:14:30.429Z,96724.38
2023-03-26T09:18:05.586Z,96717.13
2023-03-26T09:21:44.244Z,96704.88
2023-03-26T09:25:25.794Z,96695.03
2023-03-26T09:28:51.649Z,96686.91
2023-03-26T09:32:48.225Z,96678.22
2023-03-26T09:36:00.805Z,96665.44
2023-03-26T09:38:58.426Z,96667.16
2023-03-26T09:42:09.204Z,96654.91
2023-03-26T09:45:33.092Z,96657.06
2023-03-26T09:49:09.196Z,96648.44
2023-03-26T09:52:17.388Z,96637.66
2023-03-26T09:55:57.866Z,96638.75
2023-03-26T09:59:17.809Z,96637.88
2023-03-26T10:02:45.958Z,96632.34
2023-03-26T10:06:11.871Z,96640.69
2023-03-26T10:09:37.940Z,96643.59
2023-03-26T10:12:38.307Z,96640.22
2023-03-26T10:15:53.355Z,96628.59
2023-03-26T10:19:09.886Z,96619.84
2023-03-26T10:22:20.422Z,96617.47
2023-03-26T10:25:43.350Z,96617.16
2023-03-26T10:29:05.719Z,96620.81
2023-03-26T10:32:10.936Z,96611.19
2023-03-26T10:35:18.595Z,96615.66
2023-03-26T10:38:19.788Z,96628.41
2023-03-26T10:41:18.254Z,96617.91
2023-03-26T10:44:34.424Z,96612.72
2023-03-26T10:47:52.722Z,96611.09
2023-03-26T10:50:58.762Z,96622.78
2023-03-26T10:53:52.082Z,96619.94
2023-03-26T10:56:49.360Z,96616.81
2023-03-26T10:59:40.170Z,96628.84
2023-03-26T11:02:38.046Z,96633.03
2023-03-26T11:05:50.340Z,96639.25
2023-03-26T11:08:49.558Z,96639.75
2023-03-26T11:11:46.190Z,96637.53
2023-03-26T11:14:48.707Z,96639.03
2023-03-26T11:17:53.041Z,96644.78
2023-03-26T11:20:50.638Z,96630.88
2023-03-26T11:23:46.540Z,96619.03
2023-03-26T11:26:52.975Z,96624.47
2023-03-26T11:29:58.132Z,96625.50
2023-03-26T11:32:53.915Z,96625.84
2023-03-26T11:35:49.335Z,96633.50
2023-03-26T11:38:43.629Z,96629.44
2023-03-26T11:41:35.624Z,96628.69
2023-03-26T11:44:51.449Z,96620.50
2023-03-26T11:47:49.363Z,96613.91
2023-03-26T11:50:46.579Z,96623.00
2023-03-26T11:53:39.772Z,96623.06
2023-03-26T11:56:34.727Z,96622.31
2023-03-26T11:59:33.802Z,96607.72
2023-03-26T12:02:34.510Z,96607.16
2023-03-26T12:05:27.492Z,96596.25
2023-03-26T12:08:28.025Z,96587.34
2023-03-26T12:11:22.040Z,96581.47
2023-03-26T12:14:20.481Z,96565.13
2023-03-26T12:17:14.913Z,96552.16
2023-03-26T12:20:38.876Z,96540.63
2023-03-26T12:23:42.637Z,96536.75
2023-03-26T12:26:45.706Z,96531.56
2023-03-26T12:29:35.180Z,96518.16
2023-03-26T12:32:32.572Z,96520.50
2023-03-26T12:35:36.983Z,96510.19
2023-03-26T12:38:33.188Z,96521.28
2023-03-26T12:43:40.557Z,96509.28
2023-03-26T12:44:59.161Z,96501.69
2023-03-26T12:48:00.069Z,96504.13
2023-03-26T12:51:11.890Z,96503.72
2023-03-26T12:54:35.297Z,96502.56
2023-03-26T12:57:32.691Z,96493.72
2023-03-26T13:00:41.898Z,96488.06
2023-03-26T13:03:48.042Z,96484.19
2023-03-26T13:07:01.098Z,96478.03
2023-03-26T13:10:28.017Z,96483.81
2023-03-26T13:13:45.670Z,96483.59
2023-03-26T13:16:46.748Z,96479.81
2023-03-26T13:19:48.805Z,96478.16
2023-03-26T13:22:52.866Z,96467.84
2023-03-26T13:25:52.926Z,96461.00
2023-03-26T13:28:53.296Z,96451.47
2023-03-26T13:31:55.972Z,96437.00
2023-03-26T13:35:04.260Z,96433.97
2023-03-26T13:38:04.395Z,96438.91
2023-03-26T13:41:05.466Z,96429.53
2023-03-26T13:44:14.241Z,96416.38
2023-03-26T13:47:10.122Z,96423.09
2023-03-26T13:50:07.454Z,96410.44
2023-03-26T13:53:07.134Z,96402.78
2023-03-26T13:56:00.394Z,96406.59
2023-03-26T13:58:58.725Z,96402.81
2023-03-26T14:01:53.988Z,96402.72
2023-03-26T14:04:48.779Z,96402.03
2023-03-26T14:07:47.701Z,96393.59
2023-03-26T14:10:47.056Z,96382.91
2023-03-26T14:13:44.524Z,96378.25
2023-03-26T14:16:41.304Z,96401.41
2023-03-26T14:20:09.963Z,96390.44
2023-03-26T14:23:53.912Z,96389.38
2023-03-26T14:27:15.585Z,96383.19
2023-03-26T14:30:59.196Z,96384.78
2023-03-26T14:34:13.627Z,96376.75
2023-03-26T14:37:43.923Z,96370.47
2023-03-26T14:40:58.058Z,96360.75
2023-03-26T14:44:47.988Z,96361.50
2023-03-26T14:47:48.877Z,96378.16
2023-03-26T14:51:01.404Z,96385.53
2023-03-26T14:53:54.719Z,96367.72
2023-03-26T14:57:00.395Z,96359.28
2023-03-26T15:00:39.525Z,96328.63
2023-03-26T15:04:38.460Z,96325.84
2023-03-26T15:08:00.927Z,96331.69
2023-03-26T15:11:21.567Z,96336.13
2023-03-26T15:14:44.218Z,96334.03
2023-03-26T15:18:06.246Z,96336.72
2023-03-26T15:21:57.913Z,96346.13
2023-03-26T15:26:02.628Z,96337.16
2023-03-26T15:29:28.127Z,96328.00
2023-03-26T15:33:07.270Z,96326.66
2023-03-26T15:36:58.847Z,96324.97
2023-03-26T15:40:54.876Z,96333.69
2023-03-26T15:44:23.892Z,96345.56
2023-03-26T15:47:44.452Z,96338.78
2023-03-26T15:50:55.806Z,96349.72
2023-03-26T15:53:58.626Z,96375.88
2023-03-26T15:57:17.615Z,96383.25
2023-03-26T16:00:23.513Z,96372.63
2023-03-26T16:03:35.886Z,96367.16
2023-03-26T16:06:41.433Z,96360.72
2023-03-26T16:10:00.804Z,96351.03
2023-03-26T16:13:23.410Z,96348.84
2023-03-26T16:16:24.559Z,96345.47
2023-03-26T16:19:49.476Z,96346.25
2023-03-26T16:22:57.293Z,96346.63
2023-03-26T16:26:12.359Z,96354.47
2023-03-26T16:29:18.392Z,96355.72
2023-03-26T16:32:17.867Z,96362.94
2023-03-26T16:35:40.050Z,96348.53
2023-03-26T16:38:54.819Z,96354.06
2023-03-26T16:42:36.960Z,96348.03
2023-03-26T16:45:37.170Z,96343.09
2023-03-26T16:48:36.516Z,96343.81
2023-03-26T16:51:45.661Z,96342.91
2023-03-26T16:54:48.030Z,96327.78
2023-03-26T16:57:49.450Z,96331.09
2023-03-26T17:01:07.596Z,96333.47
2023-03-26T17:04:03.735Z,96325.69
2023-03-26T17:07:14.066Z,96322.56
2023-03-26T17:10:16.134Z,96313.53
2023-03-26T17:13:16.692Z,96308.88
2023-03-26T17:16:16.698Z,96304.25
2023-03-26T17:19:21.740Z,96305.69
2023-03-26T17:22:24.924Z,96300.97
2023-03-26T17:25:33.485Z,96308.50
2023-03-26T17:28:55.200Z,96312.41
2023-03-26T17:31:53.692Z,96319.94
2023-03-26T17:35:02.232Z,96334.13
2023-03-26T17:37:51.865Z,96331.88
2023-03-26T17:41:01.757Z,96323.44
2023-03-26T17:43:53.681Z,96328.75
2023-03-26T17:46:48.318Z,96328.50
2023-03-26T17:49:40.635Z,96321.31
2023-03-26T17:52:48.171Z,96324.63
2023-03-26T17:55:41.532Z,96318.41
2023-03-26T17:58:36.881Z,96310.88
2023-03-26T18:01:37.052Z,96310.84
2023-03-26T18:04:37.205Z,96318.34
2023-03-26T18:08:16.964Z,96320.75
2023-03-26T18:11:52.590Z,96325.28
2023-03-26T18:15:21.788Z,96330.66
2023-03-26T18:18:20.939Z,96328.09
2023-03-26T18:21:18.786Z,96317.53
2023-03-26T18:24:16.067Z,96319.00
2023-03-26T18:27:12.266Z,96328.81
2023-03-26T18:30:15.010Z,96324.00
2023-03-26T18:33:15.508Z,96331.34
2023-03-26T18:36:16.135Z,96336.53
2023-03-26T18:39:05.855Z,96339.59
2023-03-26T18:41:55.340Z,96331.88
2023-03-26T18:44:44.516Z,96333.63
2023-03-26T18:47:33.709Z,96330.28
2023-03-26T18:50:29.651Z,96335.31
2023-03-26T18:53:23.422Z,96331.25
2023-03-26T18:56:30.032Z,96332.53
2023-03-26T18:59:28.258Z,96330.13
2023-03-26T19:02:18.374Z,96347.31
2023-03-26T19:05:13.867Z,96334.44
2023-03-26T19:08:07.659Z,96333.66
2023-03-26T19:10:57.508Z,96339.47
2023-03-26T19:14:03.262Z,96332.28
2023-03-26T19:16:58.754Z,96325.94
2023-03-26T19:19:47.900Z,96321.63
2023-03-26T19:22:41.383Z,96323.94
2023-03-26T19:25:39.551Z,96323.25
2023-03-26T19:28:33.400Z,96322.28
2023-03-26T19:31:27.180Z,96313.69
2023-03-26T19:34:27.342Z,96313.94
2023-03-26T19:37:23.773Z,96327.00
2023-03-26T19:40:20.851Z,96317.06
2023-03-26T19:43:15.446Z,96321.38
2023-03-26T19:46:05.986Z,96329.78
2023-03-26T19:48:59.028Z,96324.53
2023-03-26T19:51:53.253Z,96328.28
2023-03-26T19:55:01.302Z,96335.84
2023-03-26T19:57:51.677Z,96332.72
2023-03-26T20:00:42.216Z,96326.13
2023-03-26T20:03:39.050Z,96332.56
2023-03-26T20:06:42.261Z,96335.38
2023-03-26T20:09:32.502Z,96336.19
2023-03-26T20:12:21.841Z,96329.00
2023-03-26T20:15:20.114Z,96348.34
2023-03-26T20:18:12.227Z,96339.22
2023-03-26T20:21:01.364Z,96350.16
2023-03-26T20:23:53.508Z,96346.91
2023-03-26T20:26:42.573Z,96355.47
2023-03-26T20:29:31.592Z,96348.03
2023-03-26T20:32:26.447Z,96347.69
2023-03-26T20:35:36.042Z,96345.91
2023-03-26T20:38:39.232Z,96349.16
2023-03-26T20:41:29.038Z,96361.47
2023-03-26T20:44:22.481Z,96363.06
2023-03-26T20:47:12.750Z,96367.22
2023-03-26T20:50:01.954Z,96373.31
2023-03-26T20:52:53.344Z,96367.22
2023-03-26T20:55:43.965Z,96371.63
2023-03-26T20:58:33.237Z,96371.06
2023-03-26T21:01:22.754Z,96379.09
2023-03-26T21:04:11.996Z,96368.13
2023-03-26T21:07:11.096Z,96369.50
2023-03-26T21:10:08.101Z,96368.44
2023-03-26T21:13:00.692Z,96378.47
2023-03-26T21:15:50.616Z,96369.84
2023-03-26T21:18:40.543Z,96366.53
2023-03-26T21:21:50.658Z,96367.31
2023-03-26T21:25:02.202Z,96367.41
2023-03-26T21:28:11.201Z,96367.41
2023-03-26T21:31:01.181Z,96372.03
2023-03-26T21:33:52.386Z,96373.16
2023-03-26T21:36:42.056Z,96378.38
2023-03-26T21:39:31.629Z,96383.47
2023-03-26T21:42:21.354Z,96372.84
2023-03-26T21:45:14.252Z,96375.88
2023-03-26T21:48:04.292Z,96378.91
2023-03-26T21:50:54.364Z,96373.63
2023-03-26T21:53:44.378Z,96379.25
2023-03-26T21:56:48.548Z,96392.44
2023-03-26T21:59:49.286Z,96385.53
2023-03-26T22:02:59.615Z,96391.97
2023-03-26T22:05:58.580Z,96382.94
2023-03-26T22:08:48.180Z,96386.44
2023-03-26T22:11:37.284Z,96389.59
2023-03-26T22:14:28.092Z,96392.41
2023-03-26T22:17:17.053Z,96389.47
2023-03-26T22:20:09.972Z,96398.06
2023-03-26T22:22:59.782Z,96396.91
2023-03-26T22:25:48.668Z,96394.00
2023-03-26T22:28:37.539Z,96396.59
2023-03-26T22:31:27.035Z,96394.69
2023-03-26T22:34:15.890Z,96399.28
2023-03-26T22:37:06.455Z,96404.81
2023-03-26T22:39:55.422Z,96394.25
2023-03-26T22:42:44.291Z,96402.41
2023-03-26T22:45:33.270Z,96404.88
2023-03-26T22:48:23.449Z,96398.81
2023-03-26T22:51:12.931Z,96405.44
2023-03-26T22:54:03.450Z,96400.13
2023-03-26T22:56:55.359Z,96399.44
2023-03-26T22:59:44.782Z,96393.84
2023-03-26T23:02:33.731Z,96399.59
2023-03-26T23:05:22.749Z,96392.25
2023-03-26T23:08:12.629Z,96390.47
2023-03-26T23:11:03.757Z,96401.44
2023-03-26T23:13:53.229Z,96400.84
2023-03-26T23:16:42.366Z,96397.91
2023-03-26T23:19:34.031Z,96404.56
2023-03-26T23:22:23.003Z,96402.88
2023-03-26T23:25:13.040Z,96406.09
2023-03-26T23:28:03.593Z,96410.03
2023-03-26T23:30:55.110Z,96408.22
2023-03-26T23:33:46.845Z,96405.63
2023-03-26T23:36:36.399Z,96411.25
2023-03-26T23:39:26.667Z,96411.81
2023-03-26T23:42:15.504Z,96410.44
2023-03-26T23:45:06.646Z,96407.59
2023-03-26T23:47:56.204Z,96413.44
2023-03-26T23:50:48.225Z,96414.56
2023-03-26T23:53:37.397Z,96408.94
2023-03-26T23:56:27.673Z,96414.03
2023-03-26T23:59:16.967Z,96401.91
